createdAt,value
2019-06-07T00:05:17.987Z,17.40
2019-06-07T00:11:20.541Z,17.30
2019-06-07T00:17:22.456Z,17.30
2019-06-07T00:23:24.667Z,17.20
2019-06-07T00:29:29.067Z,17.20
2019-06-07T00:35:31.309Z,17.20
2019-06-07T00:41:33.648Z,17.10
2019-06-07T00:47:35.820Z,17.20
2019-06-07T00:53:38.077Z,17.10
2019-06-07T00:59:40.557Z,17.10
2019-06-07T01:05:42.783Z,17.00
2019-06-07T01:11:45.060Z,16.90
2019-06-07T01:18:25.944Z,16.70
2019-06-07T01:24:11.040Z,16.60
2019-06-07T01:29:59.240Z,16.50
2019-06-07T01:36:01.521Z,16.50
2019-06-07T01:42:03.811Z,16.40
2019-06-07T01:48:06.104Z,16.30
2019-06-07T02:00:14.480Z,16.10
2019-06-07T02:06:18.429Z,16.00
2019-06-07T02:12:31.246Z,16.10
2019-06-07T02:18:27.757Z,16.20
2019-06-07T02:24:32.386Z,16.30
2019-06-07T02:30:44.707Z,16.40
2019-06-07T02:36:41.685Z,16.40
2019-06-07T02:42:43.073Z,16.50
2019-06-07T02:48:45.453Z,16.50
2019-06-07T02:54:47.545Z,16.50
2019-06-07T03:01:09.330Z,16.60
2019-06-07T03:06:56.384Z,16.60
2019-06-07T03:13:00.286Z,16.50
2019-06-07T03:19:05.476Z,16.40
2019-06-07T03:25:07.728Z,16.30
2019-06-07T03:31:10.142Z,16.30
2019-06-07T03:37:12.356Z,16.40
2019-06-07T03:43:14.660Z,16.40
2019-06-07T03:49:16.891Z,16.50
2019-06-07T03:55:19.057Z,16.70
2019-06-07T04:01:21.269Z,16.90
2019-06-07T04:07:23.504Z,17.10
2019-06-07T04:13:25.797Z,17.20
2019-06-07T04:19:28.866Z,17.30
2019-06-07T04:25:35.201Z,17.30
2019-06-07T04:31:38.636Z,17.30
2019-06-07T04:37:41.753Z,17.10
2019-06-07T04:43:45.455Z,17.30
2019-06-07T04:49:48.497Z,17.20
2019-06-07T04:55:51.353Z,17.20
2019-06-07T05:01:53.837Z,17.30
2019-06-07T05:07:56.578Z,17.30
2019-06-07T05:13:58.904Z,17.60
2019-06-07T05:20:01.222Z,17.60
2019-06-07T05:26:03.448Z,17.80
2019-06-07T05:32:05.833Z,17.90
2019-06-07T05:38:08.264Z,18.10
2019-06-07T05:44:13.095Z,18.30
2019-06-07T05:50:38.475Z,18.60
2019-06-07T05:56:18.636Z,18.80
2019-06-07T06:02:23.157Z,18.90
2019-06-07T06:08:25.648Z,20.20
2019-06-07T06:14:28.244Z,23.20
2019-06-07T06:20:34.851Z,23.50
2019-06-07T06:26:38.351Z,26.90
2019-06-07T06:32:44.023Z,27.70
2019-06-07T06:38:46.368Z,30.20
2019-06-07T06:44:53.628Z,31.00
2019-06-07T06:50:52.874Z,31.40
2019-06-07T06:57:17.268Z,32.30
2019-06-07T07:09:05.475Z,32.00
2019-06-07T07:15:13.027Z,33.40
2019-06-07T07:21:15.245Z,34.30
2019-06-07T07:27:17.501Z,34.60
2019-06-07T07:33:20.324Z,34.60
2019-06-07T07:39:22.632Z,32.90
2019-06-07T07:45:24.820Z,33.40
2019-06-07T07:51:27.043Z,31.00
2019-06-07T07:57:29.229Z,32.40
2019-06-07T08:03:31.360Z,33.70
2019-06-07T08:09:33.646Z,33.90
2019-06-07T08:15:35.944Z,33.50
2019-06-07T08:21:38.753Z,33.30
2019-06-07T08:27:41.350Z,34.20
2019-06-07T08:33:43.487Z,33.40
2019-06-07T08:39:45.924Z,34.70
2019-06-07T08:45:51.331Z,33.90
2019-06-07T08:51:56.704Z,32.80
2019-06-07T08:58:03.371Z,31.40
2019-06-07T09:04:06.670Z,30.60
2019-06-07T09:10:12.829Z,32.00
2019-06-07T09:16:09.579Z,30.80
2019-06-07T09:22:11.863Z,29.30
2019-06-07T09:28:19.457Z,29.70
2019-06-07T09:34:18.163Z,29.00
2019-06-07T09:40:28.204Z,29.50
2019-06-07T09:46:30.427Z,29.20
2019-06-07T09:52:56.358Z,29.30
2019-06-07T09:58:53.989Z,29.00
2019-06-07T10:04:40.652Z,28.80
2019-06-07T10:10:43.422Z,28.40
2019-06-07T10:16:46.909Z,28.10
2019-06-07T10:22:49.943Z,28.50
2019-06-07T10:28:53.556Z,27.90
2019-06-07T10:34:55.980Z,28.10
2019-06-07T10:41:00.688Z,27.80
2019-06-07T10:47:03.984Z,27.70
2019-06-07T10:53:06.492Z,27.90
2019-06-07T10:59:09.620Z,27.60
2019-06-07T11:05:12.407Z,27.40
2019-06-07T11:11:15.188Z,27.20
2019-06-07T11:17:17.871Z,26.90
2019-06-07T11:23:20.249Z,26.80
2019-06-07T11:29:22.574Z,27.00
2019-06-07T11:35:25.209Z,27.30
2019-06-07T11:41:27.461Z,27.40
2019-06-07T11:47:29.751Z,27.50
2019-06-07T11:53:32.532Z,27.30
2019-06-07T11:59:34.684Z,27.40
2019-06-07T12:05:36.955Z,27.50
2019-06-07T12:11:39.278Z,27.60
2019-06-07T12:17:41.793Z,27.50
2019-06-07T12:23:44.150Z,27.70
2019-06-07T12:29:46.352Z,27.80
2019-06-07T12:35:48.644Z,27.70
2019-06-07T12:41:51.008Z,28.00
2019-06-07T12:47:53.501Z,28.20
2019-06-07T12:53:55.693Z,28.10
2019-06-07T12:59:57.861Z,28.30
2019-06-07T13:06:00.131Z,28.10
2019-06-07T13:12:02.579Z,28.10
2019-06-07T13:18:04.863Z,28.00
2019-06-07T13:24:07.122Z,28.00
2019-06-07T13:30:11.094Z,28.40
2019-06-07T13:36:13.467Z,28.40
2019-06-07T13:42:16.422Z,28.80
2019-06-07T13:48:21.082Z,28.90
2019-06-07T13:54:24.743Z,28.80
2019-06-07T14:00:26.971Z,28.80
2019-06-07T14:06:30.184Z,28.90
2019-06-07T14:12:33.128Z,28.90
2019-06-07T14:18:35.489Z,28.90
2019-06-07T14:24:37.774Z,29.00
2019-06-07T14:30:40.017Z,29.20
2019-06-07T14:36:42.380Z,29.10
2019-06-07T14:42:44.715Z,28.90
2019-06-07T14:48:46.999Z,29.10
2019-06-07T14:54:49.234Z,28.80
2019-06-07T15:00:51.498Z,29.20
2019-06-07T15:06:53.777Z,29.10
2019-06-07T15:12:56.040Z,29.10
2019-06-07T15:18:58.230Z,29.00
2019-06-07T15:25:00.394Z,28.80
2019-06-07T15:31:02.547Z,28.80
2019-06-07T15:37:05.076Z,28.70
2019-06-07T15:43:07.334Z,28.70
2019-06-07T15:49:09.455Z,28.70
2019-06-07T15:55:12.707Z,28.90
2019-06-07T16:01:15.200Z,28.80
2019-06-07T16:07:17.392Z,28.80
2019-06-07T16:13:19.572Z,28.80
2019-06-07T16:19:22.970Z,28.40
2019-06-07T16:25:25.185Z,28.30
2019-06-07T16:31:27.628Z,28.20
2019-06-07T16:37:30.013Z,28.10
2019-06-07T16:43:32.280Z,28.10
2019-06-07T16:49:34.589Z,28.00
2019-06-07T16:55:36.925Z,28.00
2019-06-07T17:01:39.512Z,28.00
2019-06-07T17:07:42.548Z,27.90
2019-06-07T17:13:46.487Z,27.80
2019-06-07T17:19:49.287Z,27.80
2019-06-07T17:25:51.799Z,27.70
2019-06-07T17:31:54.124Z,27.60
2019-06-07T17:37:56.505Z,27.50
2019-06-07T17:44:00.579Z,27.50
2019-06-07T17:50:04.345Z,27.40
2019-06-07T17:56:06.554Z,27.10
2019-06-07T18:02:15.233Z,27.00
2019-06-07T18:08:15.824Z,26.90
2019-06-07T18:14:18.175Z,26.80
2019-06-07T18:20:20.639Z,26.80
2019-06-07T18:26:23.272Z,26.50
2019-06-07T18:32:25.739Z,26.20
2019-06-07T18:38:28.015Z,26.00
2019-06-07T18:44:31.274Z,25.80
2019-06-07T18:50:33.723Z,25.60
2019-06-07T18:56:36.231Z,25.50
2019-06-07T19:02:38.624Z,25.20
2019-06-07T19:08:40.964Z,24.90
2019-06-07T19:14:43.837Z,24.80
2019-06-07T19:20:46.204Z,24.40
2019-06-07T19:26:50.414Z,24.20
2019-06-07T19:32:53.252Z,23.90
2019-06-07T19:38:55.846Z,23.70
2019-06-07T19:45:17.279Z,23.50
2019-06-07T19:51:03.191Z,23.30
2019-06-07T19:57:08.843Z,23.20
2019-06-07T20:03:11.161Z,23.00
2019-06-07T20:09:13.344Z,22.80
2019-06-07T20:15:28.538Z,22.70
2019-06-07T20:21:19.664Z,22.50
2019-06-07T20:27:21.879Z,22.30
2019-06-07T20:33:24.187Z,22.20
2019-06-07T20:39:27.457Z,22.10
2019-06-07T20:45:33.466Z,21.90
2019-06-07T20:51:36.152Z,21.70
2019-06-07T20:57:38.505Z,21.60
2019-06-07T21:03:40.855Z,21.50
2019-06-07T21:09:43.096Z,21.40
2019-06-07T21:15:48.687Z,21.30
2019-06-07T21:21:49.523Z,21.10
2019-06-07T21:27:51.853Z,21.00
2019-06-07T21:33:54.015Z,20.90
2019-06-07T21:39:56.561Z,20.80
2019-06-07T21:46:06.463Z,20.60
2019-06-07T21:52:02.775Z,20.60
2019-06-07T21:58:05.214Z,20.50
2019-06-07T22:04:07.560Z,20.30
2019-06-07T22:10:10.042Z,20.30
2019-06-07T22:16:26.251Z,20.20
2019-06-07T22:22:17.738Z,20.10
2019-06-07T22:28:19.904Z,19.90
2019-06-07T22:34:22.128Z,19.70
2019-06-07T22:40:24.418Z,19.60
2019-06-07T22:46:36.999Z,19.60
2019-06-07T22:52:30.739Z,19.50
2019-06-07T22:58:33.032Z,19.30
2019-06-07T23:04:35.420Z,19.20
2019-06-07T23:10:38.683Z,19.10
2019-06-07T23:16:54.433Z,19.00
2019-06-07T23:22:44.983Z,18.90
2019-06-07T23:28:47.348Z,18.80
2019-06-07T23:35:10.618Z,18.80
2019-06-07T23:41:13.285Z,18.70
2019-06-07T23:47:17.304Z,18.60
2019-06-07T23:53:19.989Z,18.30
2019-06-07T23:59:22.481Z,18.30
